createdAt,value
2017-01-17T00:00:38.171Z,1006.99
2017-01-17T00:01:48.900Z,1007
2017-01-17T00:02:59.259Z,1007
2017-01-17T00:04:09.592Z,1006.99
2017-01-17T00:05:20.343Z,1007.03
2017-01-17T00:06:31.089Z,1006.97
2017-01-17T00:07:41.436Z,1007.04
2017-01-17T00:08:51.381Z,1006.97
2017-01-17T00:10:01.717Z,1007.04
2017-01-17T00:11:12.046Z,1007.01
2017-01-17T00:12:22.398Z,1007.01
2017-01-17T00:13:32.735Z,1007.04
2017-01-17T00:14:43.092Z,1007.06
2017-01-17T00:15:53.837Z,1007.04
2017-01-17T00:17:04.231Z,1007.02
2017-01-17T00:18:14.183Z,1007.07
2017-01-17T00:19:24.545Z,1007.04
2017-01-17T00:20:34.885Z,1007.05
2017-01-17T00:21:45.616Z,1007.06
2017-01-17T00:22:56.373Z,1007.09
2017-01-17T00:24:07.104Z,1007.08
2017-01-17T00:25:17.051Z,1007.07
2017-01-17T00:26:27.398Z,1007.1
2017-01-17T00:27:38.159Z,1007.11
2017-01-17T00:28:48.510Z,1007.14
2017-01-17T00:29:58.888Z,1007.16
2017-01-17T00:31:09.238Z,1007.17
2017-01-17T00:32:19.575Z,1007.19
2017-01-17T00:33:29.913Z,1007.23
2017-01-17T00:34:40.262Z,1007.23
2017-01-17T00:35:51.016Z,1007.19
2017-01-17T00:37:00.962Z,1007.23
2017-01-17T00:38:11.324Z,1007.2
2017-01-17T00:39:22.066Z,1007.26
2017-01-17T00:40:32.408Z,1007.33
2017-01-17T00:41:42.760Z,1007.34
2017-01-17T00:42:53.108Z,1007.34
2017-01-17T00:44:03.059Z,1007.34
2017-01-17T00:45:13.425Z,1007.38
2017-01-17T00:46:23.771Z,1007.37
2017-01-17T00:47:33.737Z,1007.35
2017-01-17T00:48:44.478Z,1007.41
2017-01-17T00:49:55.239Z,1007.38
2017-01-17T00:51:05.196Z,1007.41
2017-01-17T00:52:15.542Z,1007.42
2017-01-17T00:53:25.889Z,1007.38
2017-01-17T00:54:36.633Z,1007.38
2017-01-17T00:55:47.402Z,1007.4
2017-01-17T00:56:57.366Z,1007.43
2017-01-17T00:58:08.111Z,1007.41
2017-01-17T00:59:18.853Z,1007.42
2017-01-17T01:00:29.606Z,1007.39
2017-01-17T01:01:39.946Z,1007.44
2017-01-17T01:02:50.683Z,1007.41
2017-01-17T01:04:01.419Z,1007.48
2017-01-17T01:05:12.155Z,1007.5
2017-01-17T01:06:22.495Z,1007.48
2017-01-17T01:07:32.834Z,1007.47
2017-01-17T01:08:43.571Z,1007.47
2017-01-17T01:09:53.935Z,1007.49
2017-01-17T01:11:04.280Z,1007.5
2017-01-17T01:12:14.631Z,1007.48
2017-01-17T01:13:24.988Z,1007.43
2017-01-17T01:14:35.349Z,1007.44
2017-01-17T01:15:46.091Z,1007.47
2017-01-17T01:16:56.043Z,1007.48
2017-01-17T01:18:06.788Z,1007.44
2017-01-17T01:19:17.549Z,1007.46
2017-01-17T01:20:27.912Z,1007.49
2017-01-17T01:21:38.651Z,1007.44
2017-01-17T01:22:49.005Z,1007.43
2017-01-17T01:23:59.753Z,1007.48
2017-01-17T01:25:10.098Z,1007.44
2017-01-17T01:26:20.827Z,1007.45
2017-01-17T01:27:31.586Z,1007.44
2017-01-17T01:28:42.334Z,1007.47
2017-01-17T01:29:53.095Z,1007.46
2017-01-17T01:31:03.048Z,1007.46
2017-01-17T01:32:13.782Z,1007.52
2017-01-17T01:33:24.516Z,1007.51
2017-01-17T01:34:35.273Z,1007.51
2017-01-17T01:35:46.010Z,1007.54
2017-01-17T01:36:56.741Z,1007.51
2017-01-17T01:38:07.081Z,1007.55
2017-01-17T01:39:17.434Z,1007.5
2017-01-17T01:40:28.199Z,1007.51
2017-01-17T01:41:38.946Z,1007.52
2017-01-17T01:42:49.684Z,1007.51
2017-01-17T01:44:00.263Z,1007.49
2017-01-17T01:45:10.625Z,1007.53
2017-01-17T01:46:20.965Z,1007.5
2017-01-17T01:47:31.691Z,1007.5
2017-01-17T01:48:42.449Z,1007.51
2017-01-17T01:49:53.198Z,1007.49
2017-01-17T01:51:03.935Z,1007.49
2017-01-17T01:52:14.673Z,1007.5
2017-01-17T01:53:25.424Z,1007.49
2017-01-17T01:54:36.151Z,1007.48
2017-01-17T01:55:46.524Z,1007.49
2017-01-17T01:56:57.295Z,1007.54
2017-01-17T01:58:07.236Z,1007.48
2017-01-17T01:59:17.983Z,1007.57
2017-01-17T02:00:28.769Z,1007.54
2017-01-17T02:01:38.779Z,1007.56
2017-01-17T02:02:48.783Z,1007.54
2017-01-17T02:03:58.796Z,1007.54
2017-01-17T02:05:09.614Z,1007.56
2017-01-17T02:06:20.409Z,1007.58
2017-01-17T02:07:31.206Z,1007.53
2017-01-17T02:08:41.587Z,1007.56
2017-01-17T02:09:52.322Z,1007.55
2017-01-17T02:11:03.110Z,1007.53
2017-01-17T02:12:13.876Z,1007.54
2017-01-17T02:13:24.627Z,1007.54
2017-01-17T02:14:35.361Z,1007.55
2017-01-17T02:15:46.103Z,1007.53
2017-01-17T02:16:56.047Z,1007.59
2017-01-17T02:18:06.009Z,1007.57
2017-01-17T02:19:16.360Z,1007.58
2017-01-17T02:20:26.695Z,1007.53
2017-01-17T02:21:37.440Z,1007.58
2017-01-17T02:22:48.183Z,1007.53
2017-01-17T02:23:58.528Z,1007.55
2017-01-17T02:25:09.260Z,1007.56
2017-01-17T02:26:20.026Z,1007.53
2017-01-17T02:27:30.388Z,1007.46
2017-01-17T02:28:40.736Z,1007.5
2017-01-17T02:29:50.288Z,1007.48
2017-01-17T02:31:00.228Z,1007.5
2017-01-17T02:32:10.174Z,1007.45
2017-01-17T02:33:20.921Z,1007.47
2017-01-17T02:34:30.874Z,1007.43
2017-01-17T02:35:41.264Z,1007.45
2017-01-17T02:36:51.616Z,1007.45
2017-01-17T02:38:02.353Z,1007.43
2017-01-17T02:39:12.684Z,1007.44
2017-01-17T02:40:23.430Z,1007.45
2017-01-17T02:41:33.378Z,1007.47
2017-01-17T02:42:43.742Z,1007.47
2017-01-17T02:43:54.591Z,1007.49
2017-01-17T02:45:05.432Z,1007.49
2017-01-17T02:46:15.830Z,1007.54
2017-01-17T02:47:26.260Z,1007.54
2017-01-17T02:48:37.068Z,1007.51
2017-01-17T02:49:47.414Z,1007.53
2017-01-17T02:50:57.778Z,1007.58
2017-01-17T02:52:08.525Z,1007.54
2017-01-17T02:53:19.295Z,1007.6
2017-01-17T02:54:29.632Z,1007.57
2017-01-17T02:55:40.372Z,1007.59
2017-01-17T02:56:51.115Z,1007.56
2017-01-17T02:58:01.444Z,1007.59
2017-01-17T02:59:11.392Z,1007.56
2017-01-17T03:00:22.171Z,1007.58
2017-01-17T03:01:32.927Z,1007.56
2017-01-17T03:33:25.179Z,1007.63
2017-01-17T03:34:35.534Z,1007.67
2017-01-17T03:35:46.264Z,1007.63
2017-01-17T03:36:57.019Z,1007.65
2017-01-17T03:38:07.359Z,1007.68
2017-01-17T03:39:17.694Z,1007.65
2017-01-17T03:40:28.457Z,1007.66
2017-01-17T03:41:39.218Z,1007.7
2017-01-17T03:42:49.565Z,1007.73
2017-01-17T03:44:00.321Z,1007.67
2017-01-17T03:45:11.097Z,1007.72
2017-01-17T03:46:21.451Z,1007.75
2017-01-17T03:47:32.211Z,1007.76
2017-01-17T03:48:42.961Z,1007.8
2017-01-17T03:49:53.729Z,1007.79
2017-01-17T03:51:04.481Z,1007.78
2017-01-17T03:52:14.419Z,1007.8
2017-01-17T03:53:24.391Z,1007.79
2017-01-17T03:54:34.746Z,1007.8
2017-01-17T03:55:45.512Z,1007.72
2017-01-17T03:56:56.279Z,1007.71
2017-01-17T03:58:05.818Z,1007.75
2017-01-17T03:59:16.554Z,1007.75
2017-01-17T04:00:26.931Z,1007.76
2017-01-17T04:01:37.665Z,1007.78
2017-01-17T04:02:48.243Z,1007.77
2017-01-17T04:03:58.990Z,1007.75
2017-01-17T04:05:09.337Z,1007.76
2017-01-17T04:06:20.078Z,1007.81
2017-01-17T04:07:30.825Z,1007.79
2017-01-17T04:08:41.178Z,1007.78
2017-01-17T04:09:51.524Z,1007.79
2017-01-17T04:11:02.255Z,1007.79
2017-01-17T04:12:12.999Z,1007.81
2017-01-17T04:13:23.370Z,1007.82
2017-01-17T04:14:33.708Z,1007.81
2017-01-17T04:15:44.468Z,1007.81
2017-01-17T04:16:55.216Z,1007.84
2017-01-17T04:18:05.981Z,1007.87
2017-01-17T04:19:16.328Z,1007.84
2017-01-17T04:20:25.509Z,1007.88
2017-01-17T04:21:36.246Z,1007.88
2017-01-17T04:22:46.583Z,1007.88
2017-01-17T04:23:56.930Z,1007.92
2017-01-17T04:25:07.674Z,1007.94
2017-01-17T04:26:18.453Z,1007.9
2017-01-17T04:27:29.235Z,1007.95
2017-01-17T04:28:40.002Z,1007.95
2017-01-17T04:29:50.745Z,1007.94
2017-01-17T04:31:01.505Z,1007.88
2017-01-17T04:32:11.849Z,1007.96
2017-01-17T04:33:21.804Z,1007.95
2017-01-17T04:34:32.541Z,1007.94
2017-01-17T04:35:42.891Z,1007.96
2017-01-17T04:36:53.274Z,1007.96
2017-01-17T04:38:04.011Z,1007.97
2017-01-17T04:39:14.359Z,1008
2017-01-17T04:40:24.714Z,1008.01
2017-01-17T04:41:35.452Z,1008.04
2017-01-17T04:42:46.225Z,1008.06
2017-01-17T04:43:56.564Z,1008.07
2017-01-17T04:45:07.308Z,1008.08
2017-01-17T04:46:18.098Z,1008.1
2017-01-17T04:47:28.451Z,1008.15
2017-01-17T04:48:39.203Z,1008.2
2017-01-17T04:49:49.549Z,1008.16
2017-01-17T04:51:00.347Z,1008.18
2017-01-17T04:52:10.688Z,1008.25
2017-01-17T04:53:21.420Z,1008.26
2017-01-17T04:54:31.777Z,1008.26
2017-01-17T04:55:42.518Z,1008.26
2017-01-17T04:56:53.256Z,1008.27
2017-01-17T04:58:03.210Z,1008.27
2017-01-17T04:59:13.557Z,1008.21
2017-01-17T05:00:24.294Z,1008.23
2017-01-17T05:01:34.643Z,1008.23
2017-01-17T05:02:45.375Z,1008.27
2017-01-17T05:03:55.724Z,1008.27
2017-01-17T05:05:06.066Z,1008.29
2017-01-17T05:06:16.015Z,1008.31
2017-01-17T05:07:26.762Z,1008.35
2017-01-17T05:08:37.505Z,1008.31
2017-01-17T05:09:47.449Z,1008.36
2017-01-17T05:10:57.400Z,1008.38
2017-01-17T05:12:08.140Z,1008.41
2017-01-17T05:13:18.483Z,1008.38
2017-01-17T05:14:28.831Z,1008.4
2017-01-17T05:15:39.558Z,1008.44
2017-01-17T05:16:49.898Z,1008.44
2017-01-17T05:18:00.235Z,1008.47
2017-01-17T05:19:10.576Z,1008.47
2017-01-17T05:20:20.519Z,1008.52
2017-01-17T05:21:30.456Z,1008.52
2017-01-17T05:22:40.806Z,1008.51
2017-01-17T05:23:51.163Z,1008.55
2017-01-17T05:25:01.895Z,1008.55
2017-01-17T05:26:12.629Z,1008.55
2017-01-17T05:27:23.368Z,1008.59
2017-01-17T05:28:33.347Z,1008.56
2017-01-17T05:29:44.087Z,1008.62
2017-01-17T05:30:54.446Z,1008.62
2017-01-17T05:32:04.817Z,1008.63
2017-01-17T05:33:15.549Z,1008.63
2017-01-17T05:34:26.295Z,1008.6
2017-01-17T05:35:36.641Z,1008.66
2017-01-17T05:36:46.587Z,1008.67
2017-01-17T05:37:57.335Z,1008.66
2017-01-17T05:39:08.071Z,1008.65
2017-01-17T05:40:18.413Z,1008.67
2017-01-17T05:41:28.789Z,1008.69
2017-01-17T05:42:38.741Z,1008.64
2017-01-17T05:43:49.121Z,1008.65
2017-01-17T05:44:59.876Z,1008.7
2017-01-17T05:46:10.618Z,1008.68
2017-01-17T05:47:21.382Z,1008.65
2017-01-17T05:48:30.561Z,1008.72
2017-01-17T05:49:40.510Z,1008.71
2017-01-17T05:50:51.249Z,1008.72
2017-01-17T05:52:01.595Z,1008.76
2017-01-17T05:53:11.166Z,1008.76
2017-01-17T05:54:21.929Z,1008.77
2017-01-17T05:55:32.691Z,1008.86
2017-01-17T05:56:43.436Z,1008.85
2017-01-17T05:57:53.780Z,1008.89
2017-01-17T05:59:04.131Z,1008.93
2017-01-17T06:00:14.857Z,1008.9
2017-01-17T06:01:25.201Z,1008.92
2017-01-17T06:02:35.579Z,1008.95
2017-01-17T06:03:45.917Z,1008.96
2017-01-17T06:04:56.272Z,1009.03
2017-01-17T06:06:06.229Z,1009.01
2017-01-17T06:07:16.976Z,1009.04
2017-01-17T06:08:26.974Z,1009.07
2017-01-17T06:09:37.722Z,1009.1
2017-01-17T06:10:48.096Z,1009.04
2017-01-17T06:11:58.819Z,1009.09
2017-01-17T06:13:09.154Z,1009.08
2017-01-17T06:14:19.487Z,1009.12
2017-01-17T06:15:29.844Z,1009.16
2017-01-17T06:16:40.211Z,1009.13
2017-01-17T06:17:50.952Z,1009.12
2017-01-17T06:19:01.688Z,1009.13
2017-01-17T06:20:12.431Z,1009.17
2017-01-17T06:21:22.778Z,1009.13
2017-01-17T06:22:33.511Z,1009.27
2017-01-17T06:23:43.891Z,1009.25
2017-01-17T06:24:54.641Z,1009.24
2017-01-17T06:26:04.584Z,1009.25
2017-01-17T06:27:14.527Z,1009.25
2017-01-17T06:28:24.874Z,1009.23
2017-01-17T06:29:35.205Z,1009.28
2017-01-17T06:30:45.181Z,1009.33
2017-01-17T06:31:55.552Z,1009.34
2017-01-17T06:33:05.886Z,1009.32
2017-01-17T06:34:16.226Z,1009.37
2017-01-17T06:35:26.569Z,1009.39
2017-01-17T06:36:37.348Z,1009.41
2017-01-17T06:37:47.287Z,1009.42
2017-01-17T06:38:57.634Z,1009.43
2017-01-17T06:40:07.199Z,1009.47
2017-01-17T06:41:17.948Z,1009.51
2017-01-17T06:42:28.703Z,1009.52
2017-01-17T06:43:39.450Z,1009.63
2017-01-17T06:44:49.811Z,1009.62
2017-01-17T06:46:00.183Z,1009.66
2017-01-17T06:47:10.532Z,1009.7
2017-01-17T06:48:21.285Z,1009.68
2017-01-17T06:49:31.269Z,1009.74
2017-01-17T06:50:42.001Z,1009.73
2017-01-17T06:51:52.357Z,1009.71
2017-01-17T06:53:02.704Z,1009.79
2017-01-17T06:54:13.445Z,1009.76
2017-01-17T06:55:24.207Z,1009.78
2017-01-17T06:56:34.969Z,1009.77
2017-01-17T06:57:45.319Z,1009.8
2017-01-17T06:58:55.673Z,1009.79
2017-01-17T07:00:05.685Z,1009.84
2017-01-17T07:01:16.475Z,1009.87
2017-01-17T07:02:26.813Z,1009.92
2017-01-17T07:03:36.784Z,1009.91
2017-01-17T07:04:46.728Z,1009.91
2017-01-17T07:05:57.478Z,1009.99
2017-01-17T07:07:08.233Z,1009.93
2017-01-17T07:08:18.973Z,1009.92
2017-01-17T07:09:29.722Z,1009.95
2017-01-17T07:10:40.461Z,1009.94
2017-01-17T07:11:50.811Z,1010.02
2017-01-17T07:13:00.368Z,1010.02
2017-01-17T07:14:10.316Z,1010.03
2017-01-17T07:15:21.089Z,1010.05
2017-01-17T07:16:31.839Z,1010.01
2017-01-17T07:17:42.575Z,1010.01
2017-01-17T07:18:53.341Z,1010.11
2017-01-17T07:20:04.087Z,1010.03
2017-01-17T07:21:13.667Z,1010.03
2017-01-17T07:22:24.016Z,1010.04
2017-01-17T07:23:34.373Z,1010.1
2017-01-17T07:24:45.110Z,1010.04
2017-01-17T07:25:55.451Z,1010.06
2017-01-17T07:27:05.804Z,1010.1
2017-01-17T07:28:16.142Z,1010.08
2017-01-17T07:29:26.495Z,1010.05
2017-01-17T07:30:36.458Z,1010.11
2017-01-17T07:31:47.190Z,1010.1
2017-01-17T07:32:57.556Z,1010.13
2017-01-17T07:34:07.905Z,1010.16
2017-01-17T07:35:18.260Z,1010.16
2017-01-17T07:36:29.016Z,1010.09
2017-01-17T07:37:38.964Z,1010.16
2017-01-17T07:38:49.701Z,1010.15
2017-01-17T07:40:00.087Z,1010.15
2017-01-17T07:41:10.448Z,1010.13
2017-01-17T07:42:21.205Z,1010.16
2017-01-17T07:43:31.212Z,1010.16
2017-01-17T07:44:41.959Z,1010.12
2017-01-17T07:45:52.693Z,1010.15
2017-01-17T07:47:03.455Z,1010.17
2017-01-17T07:48:13.400Z,1010.17
2017-01-17T07:49:23.740Z,1010.19
2017-01-17T07:50:33.692Z,1010.19
2017-01-17T07:51:44.424Z,1010.27
2017-01-17T07:52:55.171Z,1010.3
2017-01-17T07:54:05.108Z,1010.21
2017-01-17T07:55:15.869Z,1010.32
2017-01-17T07:56:26.210Z,1010.29
2017-01-17T07:57:36.567Z,1010.28
2017-01-17T07:58:47.308Z,1010.3
2017-01-17T07:59:57.666Z,1010.3
2017-01-17T08:01:08.012Z,1010.37
2017-01-17T08:02:18.748Z,1010.37
2017-01-17T08:03:29.487Z,1010.38
2017-01-17T08:04:40.219Z,1010.42
2017-01-17T08:05:50.970Z,1010.4
2017-01-17T08:07:01.716Z,1010.4
2017-01-17T08:08:12.082Z,1010.45
2017-01-17T08:09:22.819Z,1010.43
2017-01-17T08:10:32.783Z,1010.43
2017-01-17T08:11:42.730Z,1010.42
2017-01-17T08:12:52.692Z,1010.41
2017-01-17T08:14:03.395Z,1010.42
2017-01-17T08:15:15.077Z,1010.51
2017-01-17T08:16:26.286Z,1010.51
2017-01-17T08:17:37.850Z,1010.51
2017-01-17T08:18:48.817Z,1010.53
2017-01-17T08:20:00.531Z,1010.55
2017-01-17T08:21:11.261Z,1010.6
2017-01-17T08:22:21.994Z,1010.58
2017-01-17T08:23:32.762Z,1010.61
2017-01-17T08:24:43.106Z,1010.63
2017-01-17T08:25:53.453Z,1010.62
2017-01-17T08:27:04.234Z,1010.66
2017-01-17T08:28:15.006Z,1010.62
2017-01-17T08:29:25.772Z,1010.65
2017-01-17T08:30:35.729Z,1010.66
2017-01-17T08:31:46.076Z,1010.67
2017-01-17T08:32:56.880Z,1010.63
2017-01-17T08:34:07.265Z,1010.7
2017-01-17T08:35:17.616Z,1010.69
2017-01-17T08:36:27.579Z,1010.72
2017-01-17T08:37:37.916Z,1010.7
2017-01-17T08:38:47.871Z,1010.62
2017-01-17T08:39:58.219Z,1010.71
2017-01-17T08:41:08.565Z,1010.63
2017-01-17T08:42:19.307Z,1010.72
2017-01-17T08:43:30.060Z,1010.7
2017-01-17T08:44:40.400Z,1010.75
2017-01-17T08:45:50.355Z,1010.75
2017-01-17T08:47:01.105Z,1010.8
2017-01-17T08:48:11.059Z,1010.83
2017-01-17T08:49:21.413Z,1010.8
2017-01-17T08:50:32.150Z,1010.83
2017-01-17T08:51:42.905Z,1010.84
2017-01-17T08:52:52.873Z,1010.84
2017-01-17T08:54:03.218Z,1010.86
2017-01-17T08:55:13.564Z,1010.84
2017-01-17T08:56:23.922Z,1010.88
2017-01-17T08:57:34.259Z,1010.89
2017-01-17T08:58:44.218Z,1010.95
2017-01-17T08:59:54.611Z,1010.94
2017-01-17T09:01:04.159Z,1010.96
2017-01-17T09:02:14.889Z,1010.94
2017-01-17T09:03:25.620Z,1011.08
2017-01-17T09:04:35.993Z,1011.01
2017-01-17T09:05:46.736Z,1011.02
2017-01-17T09:06:57.087Z,1011.02
2017-01-17T09:08:07.440Z,1011.07
2017-01-17T09:09:17.796Z,1011.06
2017-01-17T09:10:27.755Z,1011
2017-01-17T09:11:38.530Z,1011.05
2017-01-17T09:12:48.495Z,1011.02
2017-01-17T09:13:58.898Z,1011
2017-01-17T09:15:09.243Z,1011.03
2017-01-17T09:16:20.024Z,1011.05
2017-01-17T09:17:30.752Z,1011.04
2017-01-17T09:18:41.123Z,1011.11
2017-01-17T09:19:51.855Z,1011.07
2017-01-17T09:21:02.201Z,1011.09
2017-01-17T09:22:12.589Z,1011.11
2017-01-17T09:23:23.384Z,1011.16
2017-01-17T09:24:33.346Z,1011.06
2017-01-17T09:25:43.703Z,1011.09
2017-01-17T09:26:54.469Z,1011.05
2017-01-17T09:28:05.247Z,1011.11
2017-01-17T09:29:15.993Z,1011.1
2017-01-17T09:30:25.951Z,1011.14
2017-01-17T09:31:35.928Z,1011.2
2017-01-17T09:32:46.515Z,1011.22
2017-01-17T09:33:56.575Z,1011.16
2017-01-17T09:35:06.546Z,1011.12
2017-01-17T09:36:17.278Z,1011.16
2017-01-17T09:37:27.245Z,1011.14
2017-01-17T09:38:37.591Z,1011.19
2017-01-17T09:39:48.335Z,1011.18
2017-01-17T09:40:59.081Z,1011.13
2017-01-17T09:42:09.839Z,1011.17
2017-01-17T09:43:20.189Z,1011.25
2017-01-17T09:44:30.929Z,1011.22
2017-01-17T09:45:40.873Z,1011.19
2017-01-17T09:46:51.639Z,1011.18
2017-01-17T09:48:02.386Z,1011.24
2017-01-17T09:49:11.577Z,1011.22
2017-01-17T09:50:22.341Z,1011.22
2017-01-17T09:51:32.296Z,1011.17
2017-01-17T09:52:43.053Z,1011.23
2017-01-17T09:53:53.784Z,1011.19
2017-01-17T09:55:04.121Z,1011.2
2017-01-17T09:56:14.883Z,1011.19
2017-01-17T09:57:25.639Z,1011.14
2017-01-17T09:58:36.009Z,1011.11
2017-01-17T09:59:46.814Z,1011.09
2017-01-17T10:00:57.560Z,1011.03
2017-01-17T10:02:08.332Z,1011.12
2017-01-17T10:03:19.083Z,1011.15
2017-01-17T10:04:29.060Z,1011.13
2017-01-17T10:05:39.452Z,1011.06
2017-01-17T10:06:49.803Z,1011.08
2017-01-17T10:08:00.550Z,1011.03
2017-01-17T10:09:11.314Z,1011.11
2017-01-17T10:10:21.714Z,1011.1
2017-01-17T10:11:32.460Z,1011.12
2017-01-17T10:12:42.812Z,1011.12
2017-01-17T10:13:53.573Z,1011.17
2017-01-17T10:15:04.326Z,1011.13
2017-01-17T10:16:14.712Z,1011.14
2017-01-17T10:17:25.458Z,1011.07
2017-01-17T10:18:35.796Z,1011.09
2017-01-17T10:19:46.524Z,1011.07
2017-01-17T10:20:56.494Z,1011.13
2017-01-17T10:22:07.245Z,1011.09
2017-01-17T10:23:17.609Z,1011.08
2017-01-17T10:24:28.374Z,1011.27
2017-01-17T10:25:39.122Z,1011.19
2017-01-17T10:26:49.497Z,1011.1
2017-01-17T10:27:59.450Z,1011.14
2017-01-17T10:29:09.801Z,1011.03
2017-01-17T10:30:20.573Z,1011.14
2017-01-17T10:31:30.954Z,1011.11
2017-01-17T10:32:41.306Z,1011.08
2017-01-17T10:33:51.676Z,1011.13
2017-01-17T10:35:02.425Z,1011.13
2017-01-17T10:36:12.389Z,1011.06
2017-01-17T10:37:23.143Z,1011.13
2017-01-17T10:38:33.531Z,1011.1
2017-01-17T10:39:43.481Z,1011.12
2017-01-17T10:40:53.827Z,1011.2
2017-01-17T10:42:04.601Z,1011.15
2017-01-17T10:43:15.446Z,1011.16
2017-01-17T10:44:25.399Z,1011.1
2017-01-17T10:45:35.740Z,1011.2
2017-01-17T10:46:46.496Z,1011.24
2017-01-17T10:47:56.853Z,1011.24
2017-01-17T10:49:07.211Z,1011.28
2017-01-17T10:50:17.967Z,1011.34
2017-01-17T10:51:28.325Z,1011.28
2017-01-17T10:52:38.666Z,1011.3
2017-01-17T10:53:49.412Z,1011.36
2017-01-17T10:54:59.777Z,1011.32
2017-01-17T10:56:10.178Z,1011.26
2017-01-17T10:57:20.134Z,1011.32
2017-01-17T10:58:30.473Z,1011.29
2017-01-17T10:59:40.033Z,1011.33
2017-01-17T11:00:50.003Z,1011.34
2017-01-17T11:02:00.752Z,1011.32
2017-01-17T11:03:11.518Z,1011.36
2017-01-17T11:04:22.294Z,1011.32
2017-01-17T11:05:33.063Z,1011.3
2017-01-17T11:06:43.814Z,1011.23
2017-01-17T11:07:53.780Z,1011.28
2017-01-17T11:09:03.809Z,1011.28
2017-01-17T11:10:13.791Z,1011.32
2017-01-17T11:11:24.548Z,1011.3
2017-01-17T11:12:35.299Z,1011.26
2017-01-17T11:13:46.076Z,1011.28
2017-01-17T11:14:56.428Z,1011.28
2017-01-17T11:16:06.820Z,1011.29
2017-01-17T11:17:17.175Z,1011.23
2017-01-17T11:18:27.924Z,1011.24
2017-01-17T11:19:38.709Z,1011.26
2017-01-17T11:20:49.083Z,1011.28
2017-01-17T11:21:59.453Z,1011.28
2017-01-17T11:23:10.212Z,1011.28
2017-01-17T11:24:20.181Z,1011.33
2017-01-17T11:25:30.957Z,1011.25
2017-01-17T11:26:41.750Z,1011.32
2017-01-17T11:27:52.523Z,1011.32
2017-01-17T11:29:02.879Z,1011.32
2017-01-17T11:30:12.845Z,1011.36
2017-01-17T11:31:23.239Z,1011.35
2017-01-17T11:32:33.578Z,1011.34
2017-01-17T11:33:43.925Z,1011.3
2017-01-17T11:34:54.704Z,1011.33
2017-01-17T11:36:05.050Z,1011.33
2017-01-17T11:37:15.797Z,1011.37
2017-01-17T11:38:26.133Z,1011.32
2017-01-17T11:39:36.876Z,1011.27
2017-01-17T11:40:46.447Z,1011.34
2017-01-17T11:41:56.805Z,1011.33
2017-01-17T11:43:07.567Z,1011.32
2017-01-17T11:44:18.327Z,1011.26
2017-01-17T11:45:29.127Z,1011.29
2017-01-17T11:46:39.077Z,1011.34
2017-01-17T11:47:49.436Z,1011.3
2017-01-17T11:49:00.209Z,1011.31
2017-01-17T11:50:10.604Z,1011.32
2017-01-17T11:51:21.007Z,1011.29
2017-01-17T11:52:31.395Z,1011.24
2017-01-17T11:53:41.773Z,1011.32
2017-01-17T11:54:52.193Z,1011.29
2017-01-17T11:56:02.974Z,1011.28
2017-01-17T11:57:13.376Z,1011.26
2017-01-17T11:58:24.167Z,1011.29
2017-01-17T11:59:34.934Z,1011.29
2017-01-17T12:00:45.280Z,1011.33
2017-01-17T12:01:54.477Z,1011.29
2017-01-17T12:03:04.825Z,1011.3
2017-01-17T12:04:15.180Z,1011.27
2017-01-17T12:05:25.906Z,1011.3
2017-01-17T12:06:35.885Z,1011.26
2017-01-17T12:07:46.264Z,1011.3
2017-01-17T12:08:56.694Z,1011.23
2017-01-17T12:10:07.459Z,1011.25
2017-01-17T12:11:17.840Z,1011.29
2017-01-17T12:12:28.214Z,1011.25
2017-01-17T12:13:38.572Z,1011.27
2017-01-17T12:14:48.941Z,1011.23
2017-01-17T12:15:59.687Z,1011.21
2017-01-17T12:17:10.479Z,1011.25
2017-01-17T12:18:20.846Z,1011.19
2017-01-17T12:19:31.647Z,1011.22
2017-01-17T12:20:41.623Z,1011.23
2017-01-17T12:21:51.998Z,1011.22
2017-01-17T12:23:02.359Z,1011.23
2017-01-17T12:24:12.333Z,1011.21
2017-01-17T12:25:23.077Z,1011.23
2017-01-17T12:26:33.829Z,1011.2
2017-01-17T12:27:44.586Z,1011.17
2017-01-17T12:28:54.955Z,1011.19
2017-01-17T12:30:04.901Z,1011.16
2017-01-17T12:31:14.857Z,1011.19
2017-01-17T12:32:25.608Z,1011.18
2017-01-17T12:33:35.571Z,1011.23
2017-01-17T12:34:45.978Z,1011.22
2017-01-17T12:35:56.731Z,1011.26
2017-01-17T12:37:07.091Z,1011.27
2017-01-17T12:38:17.842Z,1011.21
2017-01-17T12:39:28.218Z,1011.24
2017-01-17T12:40:38.964Z,1011.23
2017-01-17T12:41:49.354Z,1011.26
2017-01-17T12:42:59.712Z,1011.27
2017-01-17T12:44:10.068Z,1011.28
2017-01-17T12:45:20.046Z,1011.26
2017-01-17T12:46:30.799Z,1011.28
2017-01-17T12:47:41.550Z,1011.25
2017-01-17T12:48:51.533Z,1011.27
2017-01-17T12:50:01.510Z,1011.31
2017-01-17T12:51:12.258Z,1011.3
2017-01-17T12:52:23.010Z,1011.31
2017-01-17T12:53:33.394Z,1011.3
2017-01-17T12:54:44.138Z,1011.29
2017-01-17T12:55:54.507Z,1011.32
2017-01-17T12:57:05.265Z,1011.3
2017-01-17T12:58:16.030Z,1011.33
2017-01-17T12:59:26.806Z,1011.29
2017-01-17T13:00:37.224Z,1011.32
2017-01-17T13:01:47.598Z,1011.31
2017-01-17T13:02:58.004Z,1011.39
2017-01-17T13:04:08.763Z,1011.31
2017-01-17T13:05:19.528Z,1011.3
2017-01-17T13:06:29.900Z,1011.34
2017-01-17T13:07:40.263Z,1011.38
2017-01-17T13:08:51.034Z,1011.3
2017-01-17T13:10:01.412Z,1011.28
2017-01-17T13:11:12.179Z,1011.32
2017-01-17T13:12:22.559Z,1011.33
2017-01-17T13:13:32.561Z,1011.29
2017-01-17T13:14:42.915Z,1011.33
2017-01-17T13:15:53.684Z,1011.27
2017-01-17T13:17:04.035Z,1011.34
2017-01-17T13:18:14.042Z,1011.33
2017-01-17T13:19:24.838Z,1011.34
2017-01-17T13:20:35.226Z,1011.3
2017-01-17T13:21:44.785Z,1011.33
2017-01-17T13:22:55.542Z,1011.33
2017-01-17T13:24:05.906Z,1011.39
2017-01-17T13:25:16.541Z,1011.35
2017-01-17T13:26:26.900Z,1011.36
2017-01-17T13:27:37.261Z,1011.39
2017-01-17T13:28:47.634Z,1011.48
2017-01-17T13:29:58.422Z,1011.4
2017-01-17T13:31:09.238Z,1011.39
2017-01-17T13:32:19.599Z,1011.44
2017-01-17T13:33:29.955Z,1011.54
2017-01-17T13:34:40.731Z,1011.51
2017-01-17T13:35:51.468Z,1011.52
2017-01-17T13:37:01.826Z,1011.56
2017-01-17T13:38:12.612Z,1011.54
2017-01-17T13:39:23.002Z,1011.53
2017-01-17T13:40:33.403Z,1011.54
2017-01-17T13:41:43.348Z,1011.5
2017-01-17T13:42:53.716Z,1011.5
2017-01-17T13:44:04.117Z,1011.54
2017-01-17T13:45:13.685Z,1011.56
2017-01-17T13:46:24.446Z,1011.54
2017-01-17T13:47:35.192Z,1011.54
2017-01-17T13:48:45.933Z,1011.5
2017-01-17T13:49:56.705Z,1011.52
2017-01-17T13:51:07.068Z,1011.63
2017-01-17T13:52:17.833Z,1011.57
2017-01-17T13:53:28.607Z,1011.6
2017-01-17T13:54:39.201Z,1011.6
2017-01-17T13:55:49.566Z,1011.61
2017-01-17T13:56:59.920Z,1011.6
2017-01-17T13:58:10.767Z,1011.59
2017-01-17T13:59:21.134Z,1011.54
2017-01-17T14:00:31.493Z,1011.56
2017-01-17T14:01:41.868Z,1011.59
2017-01-17T14:02:51.841Z,1011.63
2017-01-17T14:04:02.213Z,1011.58
2017-01-17T14:05:12.555Z,1011.56
2017-01-17T14:06:23.302Z,1011.67
2017-01-17T14:07:33.687Z,1011.6
2017-01-17T14:08:44.464Z,1011.66
2017-01-17T14:09:55.231Z,1011.58
2017-01-17T14:11:05.603Z,1011.59
2017-01-17T14:12:16.420Z,1011.6
2017-01-17T14:13:26.841Z,1011.59
2017-01-17T14:14:37.203Z,1011.65
2017-01-17T14:15:47.961Z,1011.65
2017-01-17T14:16:58.331Z,1011.71
2017-01-17T14:18:09.112Z,1011.66
2017-01-17T14:19:19.848Z,1011.68
2017-01-17T14:20:29.810Z,1011.74
2017-01-17T14:21:40.600Z,1011.71
2017-01-17T14:22:51.386Z,1011.69
2017-01-17T14:24:02.126Z,1011.7
2017-01-17T14:25:12.546Z,1011.72
2017-01-17T14:26:23.313Z,1011.71
2017-01-17T14:27:33.291Z,1011.74
2017-01-17T14:28:44.086Z,1011.72
2017-01-17T14:29:54.501Z,1011.77
2017-01-17T14:31:05.314Z,1011.71
2017-01-17T14:32:15.330Z,1011.75
2017-01-17T14:33:25.710Z,1011.76
2017-01-17T14:34:36.062Z,1011.79
2017-01-17T14:35:46.455Z,1011.82
2017-01-17T14:36:57.204Z,1011.81
2017-01-17T14:38:07.657Z,1011.79
2017-01-17T14:39:18.394Z,1011.81
2017-01-17T14:40:29.153Z,1011.78
2017-01-17T14:41:39.913Z,1011.81
2017-01-17T14:42:50.670Z,1011.81
2017-01-17T14:44:00.237Z,1011.82
2017-01-17T14:45:10.630Z,1011.85
2017-01-17T14:46:20.995Z,1011.82